Data for 03/01/2007

Time Sea-Level Adjusted Pressure Absolute Pressure Temperature Relative Humidity Dew Point   
(mb) (inHg) (mb) (inHg) (C) (F) (%) (C) (F)
00:05 1006 29.71 835 24.66 -5.8 21.6 94 -6.5 20.2
00:10 1006 29.71 835 24.66 -5.7 21.7 94 -6.5 20.2
00:15 1006 29.71 835 24.66 -5.8 21.6 95 -6.5 20.3
00:20 1006 29.71 835 24.66 -5.6 21.9 95 -6.2 20.8
00:25 1006 29.71 835 24.66 -5.3 22.4 94 -6.1 21
00:30 1006 29.71 835 24.66 -5.2 22.7 94 -6 21.3
00:35 1006 29.71 835 24.66 -5.1 22.9 93 -6 21.2
00:40 1006 29.71 835 24.66 -5.2 22.7 92 -6.3 20.7
00:45 1006 29.71 835 24.66 -5.6 22 94 -6.5 20.4
00:50 1006 29.71 835 24.66 -5.5 22 94 -6.4 20.5
00:55 1006 29.71 835 24.66 -5.4 22.3 93 -6.4 20.5
01:00 1006 29.71 835 24.66 -5.5 22.1 93 -6.4 20.5
01:05 1006 29.71 835 24.66 -5.2 22.6 93 -6.2 20.8
01:10 1006 29.71 835 24.66 -5.2 22.7 93 -6.1 20.9
01:15 1006 29.71 835 24.66 -5.1 22.8 92 -6.2 20.8
01:20 1006 29.71 835 24.66 -5.1 22.9 92 -6.2 20.9
01:25 1006 29.71 835 24.66 -5.1 22.9 92 -6.1 21
01:30 1006 29.71 835 24.66 -5.1 22.9 92 -6.1 21
01:35 1006 29.71 835 24.66 -5 22.9 92 -6.1 21.1
01:40 1006 29.71 835 24.66 -5.2 22.6 93 -6.2 20.9
01:45 1006 29.71 835 24.66 -5.2 22.7 93 -6.1 21
01:50 1006 29.71 835 24.66 -5.1 22.8 93 -6.1 21
01:55 1006 29.71 835 24.66 -5.2 22.6 93 -6.2 20.9
02:00 1006 29.71 835 24.66 -5.2 22.6 93 -6.2 20.9
02:05 1006 29.71 835 24.66 -5.2 22.7 93 -6.1 21
02:10 1006 29.71 835 24.66 -5 22.9 93 -6.1 21.1
02:15 1006 29.71 835 24.66 -5.2 22.7 93 -6.2 20.8
02:20 1006 29.71 835 24.66 -5.1 22.8 92 -6.2 20.9
02:25 1006 29.71 835 24.66 -5.1 22.8 92 -6.3 20.7
02:30 1006 29.71 835 24.66 -5.2 22.7 91 -6.4 20.4
02:35 1006 29.71 835 24.66 -5.4 22.4 91 -6.5 20.2
02:40 1006 29.71 835 24.66 -5.5 22.2 92 -6.5 20.2
02:45 1006 29.71 836 24.69 -5.5 22.1 92 -6.6 20.2
02:50 1006 29.71 836 24.69 -5.4 22.4 92 -6.4 20.4
02:55 1006 29.71 836 24.69 -5.3 22.4 91 -6.6 20.2
03:00 1006 29.71 836 24.69 -5.4 22.2 91 -6.6 20.1
03:05 1006 29.71 836 24.69 -5.4 22.2 91 -6.7 20
03:10 1006 29.71 836 24.69 -5.4 22.2 92 -6.6 20.1
03:15 1006 29.71 836 24.69 -5.4 22.3 89 -6.9 19.6
03:20 1006 29.71 836 24.69 -5.4 22.2 91 -6.7 20
03:25 1006 29.71 836 24.69 -5.3 22.5 90 -6.7 20
03:30 1006 29.71 836 24.69 -5.3 22.5 90 -6.6 20.1
03:35 1006 29.71 836 24.69 -5.2 22.6 90 -6.7 20
03:40 1006 29.71 836 24.69 -5.3 22.5 90 -6.7 19.9
03:45 1006 29.71 836 24.69 -5.3 22.4 89 -6.9 19.7
03:50 1006 29.71 836 24.69 -5.4 22.2 88 -7.1 19.3
03:55 1006 29.71 836 24.69 -5.5 22.1 89 -7.1 19.2
04:00 1006 29.71 836 24.69 -5.7 21.8 89 -7.3 18.9
04:05 1006 29.71 836 24.69 -5.7 21.8 88 -7.4 18.8
04:10 1006 29.71 836 24.69 -5.7 21.7 87 -7.5 18.4
04:15 1006 29.71 836 24.69 -5.7 21.8 87 -7.5 18.4
04:20 1006 29.71 836 24.69 -5.9 21.5 87 -7.7 18.2
04:25 1006 29.71 836 24.69 -5.9 21.4 88 -7.6 18.3
04:30 1006 29.71 836 24.69 -5.9 21.4 87 -7.7 18.1
04:35 1006 29.71 836 24.69 -5.9 21.3 88 -7.7 18.2
04:40 1006 29.71 836 24.69 -5.9 21.4 86 -7.8 17.9
04:45 1006 29.71 836 24.69 -5.7 21.7 84 -8.1 17.5
04:50 1006 29.71 836 24.69 -5.7 21.7 83 -8.2 17.3
04:55 1006 29.71 836 24.69 -5.7 21.8 81 -8.4 16.8
05:00 1006 29.71 836 24.69 -5.8 21.6 83 -8.2 17.2
05:05 1006 29.71 836 24.69 -5.9 21.4 86 -7.9 17.8
05:10 1006 29.71 836 24.69 -5.9 21.3 85 -8.1 17.4
05:15 1006 29.71 836 24.69 -5.9 21.4 86 -7.8 17.9
05:20 1007 29.74 836 24.69 -5.9 21.4 87 -7.7 18.2
05:25 1007 29.74 836 24.69 -6 21.2 87 -7.8 18
05:30 1007 29.74 836 24.69 -5.8 21.5 86 -7.8 17.9
05:35 1007 29.74 836 24.69 -5.7 21.7 85 -7.9 17.8
05:40 1007 29.74 836 24.69 -5.9 21.4 86 -7.9 17.8
05:45 1007 29.74 836 24.69 -5.9 21.3 85 -8 17.5
05:50 1007 29.74 836 24.69 -5.8 21.6 85 -7.9 17.8
05:55 1007 29.74 836 24.69 -5.7 21.8 84 -8 17.6
06:00 1007 29.74 836 24.69 -5.8 21.6 85 -8 17.6
06:05 1007 29.74 836 24.69 -5.8 21.5 85 -7.9 17.7
06:10 1007 29.74 836 24.69 -5.9 21.4 86 -7.8 17.9
06:15 1007 29.74 836 24.69 -5.8 21.5 86 -7.8 18
06:20 1007 29.74 836 24.69 -5.8 21.6 86 -7.8 18
06:25 1007 29.74 836 24.69 -5.9 21.4 85 -8.1 17.5
06:30 1007 29.74 836 24.69 -6 21.2 83 -8.4 16.8
06:35 1007 29.74 836 24.69 -6.2 20.8 84 -8.5 16.7
06:40 1007 29.74 836 24.69 -5.9 21.4 77 -9.3 15.3
06:45 1007 29.74 836 24.69 -5.7 21.8 79 -8.8 16.1
06:50 1007 29.74 836 24.69 -5.6 21.9 78 -8.8 16.1
06:55 1007 29.74 836 24.69 -5.8 21.6 83 -8.2 17.2
07:00 1007 29.74 836 24.69 -6.1 21.1 85 -8.1 17.4
07:05 1007 29.74 836 24.69 -5.8 21.5 85 -8 17.6
07:10 1007 29.74 836 24.69 -5.6 21.9 84 -7.9 17.7
07:15 1007 29.74 836 24.69 -5.3 22.4 81 -8.1 17.4
07:20 1007 29.74 836 24.69 -5.3 22.5 81 -8.1 17.3
07:25 1007 29.74 837 24.72 -5.4 22.2 81 -8.2 17.2
07:30 1007 29.74 837 24.72 -5.6 22 83 -8 17.6
07:35 1007 29.74 837 24.72 -5.6 21.9 85 -7.8 18
07:40 1008 29.77 837 24.72 -5.7 21.8 87 -7.5 18.5
07:45 1008 29.77 837 24.72 -5.6 22 88 -7.3 18.8
07:50 1008 29.77 837 24.72 -5.5 22.1 88 -7.2 19
07:55 1008 29.77 837 24.72 -5.4 22.4 88 -7.1 19.2
08:00 1008 29.77 837 24.72 -5.2 22.6 87 -7 19.4
08:05 1008 29.77 837 24.72 -5.2 22.6 86 -7.2 19.1
08:10 1008 29.77 837 24.72 -5.2 22.7 85 -7.3 18.9
08:15 1008 29.77 837 24.72 -5.2 22.7 85 -7.3 18.9
08:20 1008 29.77 837 24.72 -5.3 22.4 86 -7.3 18.9
08:25 1008 29.77 837 24.72 -5.4 22.2 87 -7.3 18.9
08:30 1008 29.77 837 24.72 -5.4 22.4 86 -7.3 18.9
08:35 1008 29.77 837 24.72 -5.5 22.2 87 -7.3 18.8
08:40 1008 29.77 837 24.72 -5.5 22.2 87 -7.3 18.9
08:45 1008 29.77 837 24.72 -5.5 22.1 88 -7.3 18.9
08:50 1008 29.77 837 24.72 -5.5 22.1 87 -7.3 18.9
08:55 1008 29.77 837 24.72 -5.8 21.6 89 -7.3 18.9
09:00 1008 29.77 838 24.75 -5.9 21.3 88 -7.7 18.2
09:05 1008 29.77 838 24.75 -5.9 21.3 89 -7.4 18.6
09:10 1008 29.77 838 24.75 -6.1 21 89 -7.6 18.4
09:15 1008 29.77 838 24.75 -6.2 20.8 89 -7.7 18.2
09:20 1008 29.77 838 24.75 -6.3 20.7 91 -7.5 18.4
09:25 1009 29.8 838 24.75 -6.1 20.9 90 -7.6 18.3
09:30 1009 29.8 838 24.75 -6.2 20.9 90 -7.6 18.3
09:35 1009 29.8 838 24.75 -6.1 21 88 -7.8 18
09:40 1009 29.8 838 24.75 -6.3 20.7 89 -7.8 18
09:45 1009 29.8 838 24.75 -6.4 20.5 90 -7.8 18
09:50 1009 29.8 838 24.75 -6.3 20.7 88 -7.9 17.8
09:55 1009 29.8 838 24.75 -6.3 20.6 90 -7.8 18
10:00 1009 29.8 838 24.75 -6.2 20.8 88 -7.9 17.8
10:05 1009 29.8 838 24.75 -6.2 20.8 87 -8.1 17.4
10:10 1009 29.8 838 24.75 -6.2 20.9 85 -8.3 17
10:15 1009 29.8 838 24.75 -5.9 21.4 83 -8.4 16.9
10:20 1009 29.8 838 24.75 -5.5 22.1 77 -8.9 16.1
10:25 1009 29.8 838 24.75 -5.3 22.5 76 -8.8 16.2
10:30 1009 29.8 838 24.75 -4.9 23.2 72 -9.2 15.4
10:35 1009 29.8 838 24.75 -4.8 23.3 71 -9.3 15.3
10:40 1009 29.8 838 24.75 -4.7 23.5 73 -8.9 16
10:45 1009 29.8 838 24.75 -4.9 23.2 72 -9.3 15.3
10:50 1009 29.8 838 24.75 -5.4 22.2 74 -9.4 15.1
10:55 1009 29.8 838 24.75 -5.2 22.7 72 -9.4 15.1
11:00 1009 29.8 838 24.75 -5.3 22.5 71 -9.7 14.6
11:05 1009 29.8 838 24.75 -5.3 22.5 72 -9.6 14.7
11:10 1009 29.8 838 24.75 -5 23 71 -9.5 14.8
11:15 1009 29.8 838 24.75 -4 24.8 66 -9.4 15.1
11:20 1009 29.8 838 24.75 -3.3 26 63 -9.3 15.3
11:25 1009 29.8 838 24.75 -3.1 26.3 62 -9.4 15.2
11:30 1009 29.8 838 24.75 -3 26.6 61 -9.4 15
11:35 1009 29.8 838 24.75 -2.9 26.7 60 -9.6 14.7
11:40 1009 29.8 838 24.75 -2.7 27.2 58 -9.9 14.1
11:45 1009 29.8 838 24.75 -2.5 27.5 57 -9.9 14.1
11:50 1009 29.8 838 24.75 -2.3 27.9 56 -9.8 14.3
11:55 1009 29.8 838 24.75 -2.1 28.2 57 -9.5 14.9
12:00 1009 29.8 838 24.75 -2.4 27.7 58 -9.6 14.7
12:05 1009 29.8 838 24.75 -2.7 27.1 59 -9.6 14.8
12:10 1009 29.8 838 24.75 -2.6 27.3 60 -9.4 15.1
12:15 1009 29.8 838 24.75 -2.2 28 61 -8.8 16.2
12:20 1009 29.8 838 24.75 -3 26.7 65 -8.7 16.4
12:25 1009 29.8 838 24.75 -4 24.8 70 -8.8 16.2
12:30 1009 29.8 838 24.75 -3.2 26.3 63 -9.2 15.4
12:35 1009 29.8 838 24.75 -3 26.6 62 -9.3 15.2
12:40 1009 29.8 838 24.75 -3.4 25.9 64 -9.3 15.3
12:45 1009 29.8 838 24.75 -3.3 26 61 -9.7 14.5
12:50 1009 29.8 838 24.75 -3.4 25.9 60 -10 14
12:55 1009 29.8 838 24.75 -4.3 24.2 63 -10.4 13.3
13:00 1009 29.8 838 24.75 -3 26.5 57 -10.4 13.4
13:05 1009 29.8 838 24.75 -2.6 27.4 57 -10 14.1
13:10 1009 29.8 838 24.75 -2.7 27.2 56 -10.3 13.4
13:15 1009 29.8 838 24.75 -2.8 27 59 -9.6 14.7
13:20 1009 29.8 838 24.75 -3.8 25.2 67 -9.1 15.6
13:25 1009 29.8 838 24.75 -3.9 25.1 70 -8.6 16.5
13:30 1009 29.8 838 24.75 -3.9 25 71 -8.5 16.8
13:35 1009 29.8 838 24.75 -3.6 25.5 69 -8.5 16.7
13:40 1009 29.8 838 24.75 -2.9 26.7 63 -9 15.8
13:45 1009 29.8 838 24.75 -2.7 27.2 60 -9.5 15
13:50 1009 29.8 838 24.75 -2.6 27.4 58 -9.7 14.5
13:55 1009 29.8 838 24.75 -2.8 27 57 -10.1 13.8
14:00 1009 29.8 839 24.78 -3.8 25.1 60 -10.5 13
14:05 1009 29.8 839 24.78 -5 23.1 67 -10.1 13.8
14:10 1009 29.8 839 24.78 -4.9 23.2 68 -10 14.1
14:15 1010 29.83 839 24.78 -5.7 21.8 75 -9.4 15
14:20 1009 29.8 839 24.78 -5.9 21.4 64 -11.7 10.9
14:25 1009 29.8 839 24.78 -5.3 22.5 62 -11.4 11.4
14:30 1010 29.83 839 24.78 -4.7 23.5 58 -11.8 10.8
14:35 1010 29.83 839 24.78 -4.8 23.4 64 -10.6 12.9
14:40 1010 29.83 839 24.78 -5.2 22.7 70 -9.7 14.5
14:45 1010 29.83 839 24.78 -5.1 22.8 66 -10.5 13.1
14:50 1009 29.8 839 24.78 -5.3 22.4 64 -11.2 11.9
14:55 1009 29.8 839 24.78 -5.3 22.5 61 -11.6 11.2
15:00 1009 29.8 839 24.78 -5 23 52 -13.5 7.7
15:05 1010 29.83 839 24.78 -4.6 23.7 56 -12.1 10.2
15:10 1010 29.83 839 24.78 -4.3 24.2 44 -14.8 5.4
15:15 1010 29.83 839 24.78 -4.7 23.5 61 -11 12.1
15:20 1010 29.83 839 24.78 -5.1 22.7 62 -11.3 11.7
15:25 1010 29.83 839 24.78 -5.1 22.8 54 -13.1 8.3
15:30 1010 29.83 839 24.78 -4.8 23.4 50 -13.6 7.5
15:35 1010 29.83 839 24.78 -4.6 23.8 48 -13.9 6.9
15:40 1010 29.83 839 24.78 -4.6 23.8 45 -14.7 5.6
15:45 1010 29.83 839 24.78 -4.3 24.2 43 -15.1 4.8
15:50 1010 29.83 839 24.78 -3.8 25.2 41 -15.2 4.7
15:55 1010 29.83 839 24.78 -3.5 25.7 37 -16.3 2.6
16:00 1010 29.83 839 24.78 -3.4 25.9 39 -15.5 4.1
16:05 1010 29.83 839 24.78 -3.3 26 40 -15 5
16:10 1010 29.83 839 24.78 -3.3 26.1 38 -15.6 4
16:15 1010 29.83 839 24.78 -3.4 25.9 38 -15.7 3.8
16:20 1010 29.83 839 24.78 -3.5 25.6 39 -15.6 3.9
16:25 1010 29.83 839 24.78 -3.7 25.3 40 -15.4 4.2
16:30 1010 29.83 840 24.81 -3.8 25.2 39 -15.7 3.8
16:35 1010 29.83 840 24.81 -3.8 25.1 39 -15.7 3.7
16:40 1010 29.83 840 24.81 -3.8 25.2 38 -16.3 2.7
16:45 1010 29.83 840 24.81 -3.8 25.2 39 -16 3.2
16:50 1010 29.83 840 24.81 -3.9 25 38 -16.2 2.8
16:55 1010 29.83 840 24.81 -4 24.8 40 -15.7 3.8
17:00 1010 29.83 840 24.81 -4.1 24.6 40 -15.8 3.6
17:05 1011 29.85 840 24.81 -4.2 24.4 40 -15.8 3.6
17:10 1011 29.85 840 24.81 -4.2 24.5 41 -15.5 4.2
17:15 1011 29.85 840 24.81 -4.1 24.6 43 -14.9 5.3
17:20 1011 29.85 840 24.81 -4.3 24.3 49 -13.4 7.8
17:25 1011 29.85 840 24.81 -4.4 24.1 52 -12.8 9
17:30 1011 29.85 840 24.81 -4.3 24.2 54 -12.2 10
17:35 1011 29.85 840 24.81 -4.4 24 55 -12.1 10.2
17:40 1011 29.85 840 24.81 -4.5 24 56 -12 10.3
17:45 1011 29.85 840 24.81 -4.6 23.8 55 -12.2 10
17:50 1011 29.85 840 24.81 -4.7 23.6 56 -12.2 10.1
17:55 1011 29.85 840 24.81 -4.9 23.2 57 -12.3 9.9
18:00 1011 29.85 840 24.81 -5.1 22.9 57 -12.3 9.9
18:05 1011 29.85 840 24.81 -5.2 22.6 58 -12.2 10
18:10 1011 29.85 840 24.81 -5.2 22.6 58 -12.2 10
18:15 1011 29.85 840 24.81 -5.3 22.5 58 -12.3 9.9
18:20 1011 29.85 840 24.81 -5.3 22.5 59 -12.2 10.1
18:25 1011 29.85 840 24.81 -5.3 22.4 58 -12.3 9.9
18:30 1011 29.85 841 24.83 -5.3 22.4 59 -12.1 10.3
18:35 1011 29.85 841 24.83 -5.4 22.4 59 -12.1 10.2
18:40 1011 29.85 841 24.83 -5.4 22.2 60 -12.1 10.3
18:45 1011 29.85 841 24.83 -5.5 22.1 59 -12.4 9.7
18:50 1012 29.88 841 24.83 -5.5 22.1 59 -12.3 9.8
18:55 1012 29.88 841 24.83 -5.6 22 59 -12.4 9.6
19:00 1012 29.88 841 24.83 -5.6 21.9 59 -12.5 9.5
19:05 1012 29.88 841 24.83 -5.8 21.5 59 -12.6 9.4
19:10 1012 29.88 841 24.83 -6.6 20.2 63 -12.4 9.7
19:15 1012 29.88 841 24.83 -7.9 17.9 67 -12.9 8.7
19:20 1012 29.88 841 24.83 -7.9 17.7 66 -13.2 8.3
19:25 1012 29.88 841 24.83 -7.7 18.1 66 -13 8.5
19:30 1012 29.88 841 24.83 -7.6 18.4 66 -12.9 8.7
19:35 1012 29.88 841 24.83 -7.4 18.8 66 -12.8 9
19:40 1012 29.88 841 24.83 -7.3 18.9 65 -12.7 9.1
19:45 1012 29.88 841 24.83 -7.3 19 65 -12.7 9.1
19:50 1012 29.88 841 24.83 -7.3 18.8 66 -12.6 9.4
19:55 1012 29.88 841 24.83 -7.6 18.3 67 -12.7 9.1
20:00 1012 29.88 841 24.83 -7.7 18.2 67 -12.9 8.8
20:05 1012 29.88 841 24.83 -7.7 18.1 67 -12.8 8.9
20:10 1012 29.88 841 24.83 -7.2 19 65 -12.8 9
20:15 1012 29.88 841 24.83 -6.8 19.7 64 -12.6 9.3
20:20 1012 29.88 841 24.83 -6.8 19.7 64 -12.6 9.3
20:25 1012 29.88 842 24.86 -7.4 18.8 64 -13.1 8.5
20:30 1012 29.88 842 24.86 -8.1 17.5 65 -13.5 7.7
20:35 1012 29.88 842 24.86 -8.2 17.3 67 -13.4 8
20:40 1013 29.91 842 24.86 -8.6 16.6 67 -13.6 7.5
20:45 1013 29.91 842 24.86 -8.8 16.2 66 -14 6.9
20:50 1013 29.91 842 24.86 -8.7 16.4 65 -14.1 6.6
20:55 1013 29.91 842 24.86 -9.2 15.5 65 -14.6 5.6
21:00 1013 29.91 842 24.86 -9.6 14.7 64 -15.1 4.7
21:05 1013 29.91 842 24.86 -9.9 14.2 65 -15.3 4.4
21:10 1013 29.91 842 24.86 -10 14.1 63 -15.8 3.6
21:15 1013 29.91 842 24.86 -10 13.9 63 -15.9 3.4
21:20 1013 29.91 842 24.86 -10.1 13.9 61 -16.1 2.9
21:25 1013 29.91 842 24.86 -9.9 14.1 61 -16.2 2.9
21:30 1013 29.91 842 24.86 -10 14 62 -16 3.2
21:35 1013 29.91 842 24.86 -9.8 14.3 61 -16 3.3
21:40 1013 29.91 842 24.86 -9.8 14.4 61 -15.9 3.4
21:45 1013 29.91 842 24.86 -9.5 14.9 61 -15.7 3.7
21:50 1013 29.91 842 24.86 -9.6 14.7 61 -15.8 3.6
21:55 1013 29.91 842 24.86 -9.7 14.5 62 -15.7 3.7
22:00 1013 29.91 842 24.86 -9.7 14.6 62 -15.7 3.7
22:05 1013 29.91 842 24.86 -9.6 14.7 61 -15.8 3.6
22:10 1013 29.91 842 24.86 -9.6 14.7 62 -15.6 3.9
22:15 1013 29.91 842 24.86 -9.3 15.3 61 -15.5 4.1
22:20 1013 29.91 843 24.89 -9.3 15.2 61 -15.6 3.9
22:25 1013 29.91 843 24.89 -9.4 15.1 61 -15.6 3.9
22:30 1013 29.91 843 24.89 -9.2 15.5 61 -15.5 4.2
22:35 1013 29.91 843 24.89 -8.8 16.1 60 -15.3 4.5
22:40 1014 29.94 843 24.89 -8.7 16.3 59 -15.3 4.5
22:45 1014 29.94 843 24.89 -8.9 16.1 61 -15.2 4.7
22:50 1014 29.94 843 24.89 -9 15.8 60 -15.4 4.3
22:55 1014 29.94 843 24.89 -9.3 15.3 61 -15.5 4.1
23:00 1014 29.94 843 24.89 -9.4 15.1 62 -15.5 4.1
23:05 1014 29.94 843 24.89 -9.5 15 62 -15.5 4.1
23:10 1014 29.94 843 24.89 -9.5 14.8 62 -15.5 4.1
23:15 1014 29.94 843 24.89 -9.4 15.2 61 -15.5 4.1
23:20 1014 29.94 843 24.89 -9 15.8 60 -15.4 4.2
23:25 1014 29.94 843 24.89 -8.6 16.5 59 -15.3 4.4
23:30 1014 29.94 843 24.89 -9.1 15.6 61 -15.3 4.4
23:35 1014 29.94 843 24.89 -9.9 14.1 63 -15.8 3.6
23:40 1014 29.94 843 24.89 -10.2 13.7 65 -15.6 3.9
23:45 1014 29.94 843 24.89 -9.8 14.3 63 -15.6 3.8
23:50 1014 29.94 843 24.89 -9.8 14.3 63 -15.7 3.8
23:55 1014 29.94 843 24.89 -9.8 14.3 64 -15.4 4.3
24:00 1014 29.94 843 24.89 -9.9 14.3 63 -15.6 4